sensor_id;sensor_type;location;lat;lon;timestamp;temperature;humidity
39875;DHT22;25547;52.530;13.194;2022-08-19T00:01:21;21.70;99.90
39875;DHT22;25547;52.530;13.194;2022-08-19T00:03:49;21.70;99.90
39875;DHT22;25547;52.530;13.194;2022-08-19T00:06:17;21.70;99.90
39875;DHT22;25547;52.530;13.194;2022-08-19T00:08:43;21.70;99.90
39875;DHT22;25547;52.530;13.194;2022-08-19T00:11:09;21.60;99.90
39875;DHT22;25547;52.530;13.194;2022-08-19T00:13:35;21.60;99.90
39875;DHT22;25547;52.530;13.194;2022-08-19T00:16:02;21.60;99.90
39875;DHT22;25547;52.530;13.194;2022-08-19T00:18:28;21.70;99.90
39875;DHT22;25547;52.530;13.194;2022-08-19T00:20:53;21.70;99.90
39875;DHT22;25547;52.530;13.194;2022-08-19T00:23:19;21.60;99.90
39875;DHT22;25547;52.530;13.194;2022-08-19T00:25:45;21.70;99.90
39875;DHT22;25547;52.530;13.194;2022-08-19T00:28:11;21.70;99.90
39875;DHT22;25547;52.530;13.194;2022-08-19T00:30:37;21.70;99.90
39875;DHT22;25547;52.530;13.194;2022-08-19T00:33:03;21.60;99.90
39875;DHT22;25547;52.530;13.194;2022-08-19T00:35:29;21.60;99.90
39875;DHT22;25547;52.530;13.194;2022-08-19T00:37:57;21.60;99.90
39875;DHT22;25547;52.530;13.194;2022-08-19T00:40:23;21.60;99.90
39875;DHT22;25547;52.530;13.194;2022-08-19T00:42:52;21.60;99.90
39875;DHT22;25547;52.530;13.194;2022-08-19T00:45:25;21.70;99.90
39875;DHT22;25547;52.530;13.194;2022-08-19T00:47:55;21.70;99.90
39875;DHT22;25547;52.530;13.194;2022-08-19T00:50:22;21.70;99.90
39875;DHT22;25547;52.530;13.194;2022-08-19T00:52:50;22.00;99.90
39875;DHT22;25547;52.530;13.194;2022-08-19T00:55:22;21.90;99.90
39875;DHT22;25547;52.530;13.194;2022-08-19T00:57:59;21.80;99.90
39875;DHT22;25547;52.530;13.194;2022-08-19T01:00:29;21.80;99.90
39875;DHT22;25547;52.530;13.194;2022-08-19T01:02:55;21.70;99.90
39875;DHT22;25547;52.530;13.194;2022-08-19T01:05:27;21.70;99.90
39875;DHT22;25547;52.530;13.194;2022-08-19T01:07:56;21.60;99.90
39875;DHT22;25547;52.530;13.194;2022-08-19T01:10:27;21.60;99.90
39875;DHT22;25547;52.530;13.194;2022-08-19T01:12:52;21.50;99.90
39875;DHT22;25547;52.530;13.194;2022-08-19T01:15:24;21.50;99.90
39875;DHT22;25547;52.530;13.194;2022-08-19T01:17:51;21.50;99.90
39875;DHT22;25547;52.530;13.194;2022-08-19T01:20:22;21.50;99.90
39875;DHT22;25547;52.530;13.194;2022-08-19T01:22:54;21.60;99.90
39875;DHT22;25547;52.530;13.194;2022-08-19T01:25:22;21.50;99.90
39875;DHT22;25547;52.530;13.194;2022-08-19T01:27:50;21.50;99.90
39875;DHT22;25547;52.530;13.194;2022-08-19T01:30:30;21.60;99.90
39875;DHT22;25547;52.530;13.194;2022-08-19T01:32:57;21.80;99.90
39875;DHT22;25547;52.530;13.194;2022-08-19T01:35:28;22.10;99.90
39875;DHT22;25547;52.530;13.194;2022-08-19T01:37:57;22.20;99.90
39875;DHT22;25547;52.530;13.194;2022-08-19T01:40:26;22.10;99.90
39875;DHT22;25547;52.530;13.194;2022-08-19T01:42:52;22.00;99.90
39875;DHT22;25547;52.530;13.194;2022-08-19T01:45:20;21.90;99.90
39875;DHT22;25547;52.530;13.194;2022-08-19T01:47:49;21.90;99.90
39875;DHT22;25547;52.530;13.194;2022-08-19T01:50:17;21.90;99.90
39875;DHT22;25547;52.530;13.194;2022-08-19T01:52:43;21.80;99.90
39875;DHT22;25547;52.530;13.194;2022-08-19T01:55:13;21.70;99.90
39875;DHT22;25547;52.530;13.194;2022-08-19T01:57:42;21.70;99.90
39875;DHT22;25547;52.530;13.194;2022-08-19T02:00:11;21.70;99.90
39875;DHT22;25547;52.530;13.194;2022-08-19T02:02:40;21.60;99.90
39875;DHT22;25547;52.530;13.194;2022-08-19T02:05:06;21.70;99.90
39875;DHT22;25547;52.530;13.194;2022-08-19T02:07:36;21.60;99.90
39875;DHT22;25547;52.530;13.194;2022-08-19T02:10:10;21.50;99.90
39875;DHT22;25547;52.530;13.194;2022-08-19T02:12:36;21.50;99.90
39875;DHT22;25547;52.530;13.194;2022-08-19T02:15:02;21.50;99.90
39875;DHT22;25547;52.530;13.194;2022-08-19T02:17:29;21.50;99.90
39875;DHT22;25547;52.530;13.194;2022-08-19T02:19:55;21.50;99.90
39875;DHT22;25547;52.530;13.194;2022-08-19T02:22:25;21.50;99.90
39875;DHT22;25547;52.530;13.194;2022-08-19T02:24:54;21.40;99.90
39875;DHT22;25547;52.530;13.194;2022-08-19T02:27:23;21.40;99.90
39875;DHT22;25547;52.530;13.194;2022-08-19T02:29:49;21.40;99.90
39875;DHT22;25547;52.530;13.194;2022-08-19T02:32:16;21.40;99.90
39875;DHT22;25547;52.530;13.194;2022-08-19T02:34:42;21.40;99.90
39875;DHT22;25547;52.530;13.194;2022-08-19T02:37:08;21.30;99.90
39875;DHT22;25547;52.530;13.194;2022-08-19T02:39:53;21.20;99.90
39875;DHT22;25547;52.530;13.194;2022-08-19T02:42:22;21.10;99.90
39875;DHT22;25547;52.530;13.194;2022-08-19T02:44:47;21.10;99.90
39875;DHT22;25547;52.530;13.194;2022-08-19T02:47:15;21.10;99.90
39875;DHT22;25547;52.530;13.194;2022-08-19T02:49:41;21.00;99.90
39875;DHT22;25547;52.530;13.194;2022-08-19T02:52:09;20.90;99.90
39875;DHT22;25547;52.530;13.194;2022-08-19T02:54:36;20.90;99.90
39875;DHT22;25547;52.530;13.194;2022-08-19T02:57:05;21.00;99.90
39875;DHT22;25547;52.530;13.194;2022-08-19T02:59:31;20.90;99.90
39875;DHT22;25547;52.530;13.194;2022-08-19T03:02:00;20.90;99.90
39875;DHT22;25547;52.530;13.194;2022-08-19T03:04:27;20.90;99.90
39875;DHT22;25547;52.530;13.194;2022-08-19T03:06:53;21.00;99.90
39875;DHT22;25547;52.530;13.194;2022-08-19T03:09:22;20.90;99.90
39875;DHT22;25547;52.530;13.194;2022-08-19T03:11:47;20.90;99.90
39875;DHT22;25547;52.530;13.194;2022-08-19T03:14:13;21.00;99.90
39875;DHT22;25547;52.530;13.194;2022-08-19T03:16:49;20.90;99.90
39875;DHT22;25547;52.530;13.194;2022-08-19T03:19:19;20.90;99.90
39875;DHT22;25547;52.530;13.194;2022-08-19T03:21:49;20.90;99.90
39875;DHT22;25547;52.530;13.194;2022-08-19T03:24:21;20.90;99.90
39875;DHT22;25547;52.530;13.194;2022-08-19T03:26:49;20.90;99.90
39875;DHT22;25547;52.530;13.194;2022-08-19T03:29:19;20.80;99.90
39875;DHT22;25547;52.530;13.194;2022-08-19T03:31:45;20.90;99.90
39875;DHT22;25547;52.530;13.194;2022-08-19T03:34:14;20.90;99.90
39875;DHT22;25547;52.530;13.194;2022-08-19T03:36:41;20.80;99.90
39875;DHT22;25547;52.530;13.194;2022-08-19T03:39:12;20.90;99.90
39875;DHT22;25547;52.530;13.194;2022-08-19T03:41:40;20.90;99.90
39875;DHT22;25547;52.530;13.194;2022-08-19T03:44:06;20.90;99.90
39875;DHT22;25547;52.530;13.194;2022-08-19T03:46:35;20.90;99.90
39875;DHT22;25547;52.530;13.194;2022-08-19T03:49:04;20.80;99.90
39875;DHT22;25547;52.530;13.194;2022-08-19T03:51:38;20.80;99.90
39875;DHT22;25547;52.530;13.194;2022-08-19T03:54:08;20.90;99.90
39875;DHT22;25547;52.530;13.194;2022-08-19T03:56:38;21.10;99.90
39875;DHT22;25547;52.530;13.194;2022-08-19T03:59:09;21.10;99.90
39875;DHT22;25547;52.530;13.194;2022-08-19T04:01:36;21.00;99.90
39875;DHT22;25547;52.530;13.194;2022-08-19T04:04:02;20.90;99.90
39875;DHT22;25547;52.530;13.194;2022-08-19T04:06:33;20.90;99.90
39875;DHT22;25547;52.530;13.194;2022-08-19T04:09:03;20.90;99.90
39875;DHT22;25547;52.530;13.194;2022-08-19T04:11:34;20.90;99.90
39875;DHT22;25547;52.530;13.194;2022-08-19T04:13:59;20.90;99.90
39875;DHT22;25547;52.530;13.194;2022-08-19T04:16:28;20.90;99.90
39875;DHT22;25547;52.530;13.194;2022-08-19T04:18:59;20.90;99.90
39875;DHT22;25547;52.530;13.194;2022-08-19T04:21:29;20.80;99.90
39875;DHT22;25547;52.530;13.194;2022-08-19T04:23:56;20.80;99.90
39875;DHT22;25547;52.530;13.194;2022-08-19T04:26:28;20.80;99.90
39875;DHT22;25547;52.530;13.194;2022-08-19T04:28:56;20.80;99.90
39875;DHT22;25547;52.530;13.194;2022-08-19T04:31:26;20.90;99.90
39875;DHT22;25547;52.530;13.194;2022-08-19T04:33:53;21.00;99.90
39875;DHT22;25547;52.530;13.194;2022-08-19T04:36:22;21.10;99.90
39875;DHT22;25547;52.530;13.194;2022-08-19T04:38:53;21.00;99.90
39875;DHT22;25547;52.530;13.194;2022-08-19T04:41:22;20.90;99.90
39875;DHT22;25547;52.530;13.194;2022-08-19T04:44:06;20.90;99.90
39875;DHT22;25547;52.530;13.194;2022-08-19T04:46:32;21.00;99.90
39875;DHT22;25547;52.530;13.194;2022-08-19T04:48:59;21.00;99.90
39875;DHT22;25547;52.530;13.194;2022-08-19T04:51:25;21.00;99.90
39875;DHT22;25547;52.530;13.194;2022-08-19T04:53:51;21.00;99.90
39875;DHT22;25547;52.530;13.194;2022-08-19T04:56:19;20.90;99.90
39875;DHT22;25547;52.530;13.194;2022-08-19T04:58:46;20.90;99.90
39875;DHT22;25547;52.530;13.194;2022-08-19T05:01:24;20.90;99.90
39875;DHT22;25547;52.530;13.194;2022-08-19T05:03:50;20.90;99.90
39875;DHT22;25547;52.530;13.194;2022-08-19T05:06:18;20.90;99.90
39875;DHT22;25547;52.530;13.194;2022-08-19T05:08:45;21.00;99.90
39875;DHT22;25547;52.530;13.194;2022-08-19T05:11:17;21.00;99.90
39875;DHT22;25547;52.530;13.194;2022-08-19T05:13:44;21.00;99.90
39875;DHT22;25547;52.530;13.194;2022-08-19T05:16:12;21.10;99.90
39875;DHT22;25547;52.530;13.194;2022-08-19T05:18:39;21.10;99.90
39875;DHT22;25547;52.530;13.194;2022-08-19T05:21:23;21.20;99.90
39875;DHT22;25547;52.530;13.194;2022-08-19T05:24:10;21.30;99.90
39875;DHT22;25547;52.530;13.194;2022-08-19T05:26:38;21.40;99.90
39875;DHT22;25547;52.530;13.194;2022-08-19T05:29:07;21.50;99.90
39875;DHT22;25547;52.530;13.194;2022-08-19T05:31:36;21.60;99.90
39875;DHT22;25547;52.530;13.194;2022-08-19T05:34:03;21.70;99.90
39875;DHT22;25547;52.530;13.194;2022-08-19T05:36:35;21.60;99.90
39875;DHT22;25547;52.530;13.194;2022-08-19T05:39:02;21.60;99.90
39875;DHT22;25547;52.530;13.194;2022-08-19T05:41:28;21.80;99.90
39875;DHT22;25547;52.530;13.194;2022-08-19T05:43:55;22.10;99.90
39875;DHT22;25547;52.530;13.194;2022-08-19T05:46:21;22.30;99.90
39875;DHT22;25547;52.530;13.194;2022-08-19T05:48:47;22.50;99.90
39875;DHT22;25547;52.530;13.194;2022-08-19T05:51:16;22.50;99.90
39875;DHT22;25547;52.530;13.194;2022-08-19T05:53:42;22.60;99.90
39875;DHT22;25547;52.530;13.194;2022-08-19T05:56:16;22.50;99.90
39875;DHT22;25547;52.530;13.194;2022-08-19T05:58:44;22.60;99.90
39875;DHT22;25547;52.530;13.194;2022-08-19T06:01:17;22.40;99.90
39875;DHT22;25547;52.530;13.194;2022-08-19T06:03:43;22.30;99.90
39875;DHT22;25547;52.530;13.194;2022-08-19T06:06:10;22.20;99.90
39875;DHT22;25547;52.530;13.194;2022-08-19T06:08:38;22.00;99.90
39875;DHT22;25547;52.530;13.194;2022-08-19T06:11:32;22.00;99.90
39875;DHT22;25547;52.530;13.194;2022-08-19T06:14:02;21.90;99.90
39875;DHT22;25547;52.530;13.194;2022-08-19T06:16:30;21.90;99.90
39875;DHT22;25547;52.530;13.194;2022-08-19T06:19:00;21.90;99.90
39875;DHT22;25547;52.530;13.194;2022-08-19T06:21:27;21.90;99.90
39875;DHT22;25547;52.530;13.194;2022-08-19T06:23:54;22.20;99.90
39875;DHT22;25547;52.530;13.194;2022-08-19T06:26:20;22.40;99.90
39875;DHT22;25547;52.530;13.194;2022-08-19T06:28:47;22.50;99.90
39875;DHT22;25547;52.530;13.194;2022-08-19T06:31:15;22.70;99.90
39875;DHT22;25547;52.530;13.194;2022-08-19T06:33:42;22.70;99.90
39875;DHT22;25547;52.530;13.194;2022-08-19T06:36:16;22.60;99.90
39875;DHT22;25547;52.530;13.194;2022-08-19T06:38:42;22.60;99.90
39875;DHT22;25547;52.530;13.194;2022-08-19T06:41:08;22.60;99.90
39875;DHT22;25547;52.530;13.194;2022-08-19T06:43:35;22.50;99.90
39875;DHT22;25547;52.530;13.194;2022-08-19T06:46:01;22.30;99.90
39875;DHT22;25547;52.530;13.194;2022-08-19T06:48:29;22.20;99.90
39875;DHT22;25547;52.530;13.194;2022-08-19T06:50:55;22.10;99.90
39875;DHT22;25547;52.530;13.194;2022-08-19T06:53:21;22.20;99.90
39875;DHT22;25547;52.530;13.194;2022-08-19T06:55:47;22.10;99.90
39875;DHT22;25547;52.530;13.194;2022-08-19T06:58:12;22.00;99.90
39875;DHT22;25547;52.530;13.194;2022-08-19T07:00:40;22.00;99.90
39875;DHT22;25547;52.530;13.194;2022-08-19T07:03:05;22.00;99.90
39875;DHT22;25547;52.530;13.194;2022-08-19T07:05:41;22.00;99.90
39875;DHT22;25547;52.530;13.194;2022-08-19T07:08:06;22.00;99.90
39875;DHT22;25547;52.530;13.194;2022-08-19T07:10:33;22.10;99.90
39875;DHT22;25547;52.530;13.194;2022-08-19T07:13:00;22.00;99.90
39875;DHT22;25547;52.530;13.194;2022-08-19T07:15:26;22.00;99.90
39875;DHT22;25547;52.530;13.194;2022-08-19T07:17:54;22.00;99.90
39875;DHT22;25547;52.530;13.194;2022-08-19T07:20:20;22.00;99.90
39875;DHT22;25547;52.530;13.194;2022-08-19T07:22:46;22.00;99.90
39875;DHT22;25547;52.530;13.194;2022-08-19T07:25:14;21.90;99.90
39875;DHT22;25547;52.530;13.194;2022-08-19T07:27:41;21.90;99.90
39875;DHT22;25547;52.530;13.194;2022-08-19T07:30:08;22.00;99.90
39875;DHT22;25547;52.530;13.194;2022-08-19T07:32:34;22.00;99.90
39875;DHT22;25547;52.530;13.194;2022-08-19T07:35:02;22.00;99.90
39875;DHT22;25547;52.530;13.194;2022-08-19T07:37:30;21.90;99.90
39875;DHT22;25547;52.530;13.194;2022-08-19T07:39:59;22.00;99.90
39875;DHT22;25547;52.530;13.194;2022-08-19T07:42:28;22.00;99.90
39875;DHT22;25547;52.530;13.194;2022-08-19T07:44:54;22.10;99.90
39875;DHT22;25547;52.530;13.194;2022-08-19T07:47:20;22.10;99.90
39875;DHT22;25547;52.530;13.194;2022-08-19T07:49:47;22.20;99.90
39875;DHT22;25547;52.530;13.194;2022-08-19T07:52:13;22.10;99.90
39875;DHT22;25547;52.530;13.194;2022-08-19T07:54:39;22.20;99.90
39875;DHT22;25547;52.530;13.194;2022-08-19T07:57:06;22.30;99.90
39875;DHT22;25547;52.530;13.194;2022-08-19T07:59:35;22.40;99.90
39875;DHT22;25547;52.530;13.194;2022-08-19T08:02:02;22.40;99.90
39875;DHT22;25547;52.530;13.194;2022-08-19T08:04:29;22.60;99.90
39875;DHT22;25547;52.530;13.194;2022-08-19T08:07:15;22.70;99.90
39875;DHT22;25547;52.530;13.194;2022-08-19T08:09:59;22.50;99.90
39875;DHT22;25547;52.530;13.194;2022-08-19T08:12:31;22.50;99.90
39875;DHT22;25547;52.530;13.194;2022-08-19T08:15:03;22.50;99.90
39875;DHT22;25547;52.530;13.194;2022-08-19T08:17:31;22.50;99.90
39875;DHT22;25547;52.530;13.194;2022-08-19T08:19:59;22.50;99.90
39875;DHT22;25547;52.530;13.194;2022-08-19T08:22:25;22.60;99.90
39875;DHT22;25547;52.530;13.194;2022-08-19T08:25:14;22.60;99.90
39875;DHT22;25547;52.530;13.194;2022-08-19T08:27:42;22.50;99.90
39875;DHT22;25547;52.530;13.194;2022-08-19T08:30:15;22.50;99.90
39875;DHT22;25547;52.530;13.194;2022-08-19T08:32:41;22.40;99.90
39875;DHT22;25547;52.530;13.194;2022-08-19T08:35:10;22.30;99.90
39875;DHT22;25547;52.530;13.194;2022-08-19T08:37:37;22.20;99.90
39875;DHT22;25547;52.530;13.194;2022-08-19T08:40:11;22.10;99.90
39875;DHT22;25547;52.530;13.194;2022-08-19T08:42:50;22.10;99.90
39875;DHT22;25547;52.530;13.194;2022-08-19T08:45:19;22.10;99.90
39875;DHT22;25547;52.530;13.194;2022-08-19T08:47:50;22.10;99.90
39875;DHT22;25547;52.530;13.194;2022-08-19T08:50:50;22.10;99.90
39875;DHT22;25547;52.530;13.194;2022-08-19T08:53:20;22.10;99.90
39875;DHT22;25547;52.530;13.194;2022-08-19T08:55:46;22.20;99.90
39875;DHT22;25547;52.530;13.194;2022-08-19T08:58:42;22.20;99.90
39875;DHT22;25547;52.530;13.194;2022-08-19T09:01:12;22.20;99.90
39875;DHT22;25547;52.530;13.194;2022-08-19T09:03:42;22.30;99.90
39875;DHT22;25547;52.530;13.194;2022-08-19T09:17:26;22.10;99.90
39875;DHT22;25547;52.530;13.194;2022-08-19T09:22:40;22.10;99.90
39875;DHT22;25547;52.530;13.194;2022-08-19T09:25:12;22.10;99.90
39875;DHT22;25547;52.530;13.194;2022-08-19T09:27:39;22.20;99.90
39875;DHT22;25547;52.530;13.194;2022-08-19T09:30:06;22.20;99.90
39875;DHT22;25547;52.530;13.194;2022-08-19T09:32:32;22.20;99.90
39875;DHT22;25547;52.530;13.194;2022-08-19T09:34:58;22.20;99.90
39875;DHT22;25547;52.530;13.194;2022-08-19T09:37:25;22.20;99.90
39875;DHT22;25547;52.530;13.194;2022-08-19T09:39:51;22.30;99.90
39875;DHT22;25547;52.530;13.194;2022-08-19T09:42:18;22.30;99.90
39875;DHT22;25547;52.530;13.194;2022-08-19T09:44:44;22.40;99.90
39875;DHT22;25547;52.530;13.194;2022-08-19T09:47:11;22.40;99.90
39875;DHT22;25547;52.530;13.194;2022-08-19T09:49:37;22.30;99.90
39875;DHT22;25547;52.530;13.194;2022-08-19T09:52:07;22.30;99.90
39875;DHT22;25547;52.530;13.194;2022-08-19T09:54:34;22.40;99.90
39875;DHT22;25547;52.530;13.194;2022-08-19T09:56:59;22.50;99.90
39875;DHT22;25547;52.530;13.194;2022-08-19T09:59:28;22.50;99.90
39875;DHT22;25547;52.530;13.194;2022-08-19T10:02:00;22.60;99.90
39875;DHT22;25547;52.530;13.194;2022-08-19T10:04:25;22.60;99.90
39875;DHT22;25547;52.530;13.194;2022-08-19T10:07:14;22.60;99.90
39875;DHT22;25547;52.530;13.194;2022-08-19T10:09:40;22.50;99.90
39875;DHT22;25547;52.530;13.194;2022-08-19T10:12:08;22.50;99.90
39875;DHT22;25547;52.530;13.194;2022-08-19T10:14:36;22.60;99.90
39875;DHT22;25547;52.530;13.194;2022-08-19T10:17:07;22.70;99.90
39875;DHT22;25547;52.530;13.194;2022-08-19T10:19:35;22.70;99.90
39875;DHT22;25547;52.530;13.194;2022-08-19T10:22:09;22.90;99.90
39875;DHT22;25547;52.530;13.194;2022-08-19T10:24:39;23.10;99.90
39875;DHT22;25547;52.530;13.194;2022-08-19T10:27:08;23.20;99.90
39875;DHT22;25547;52.530;13.194;2022-08-19T10:29:39;23.20;99.90
39875;DHT22;25547;52.530;13.194;2022-08-19T10:32:06;23.40;99.90
39875;DHT22;25547;52.530;13.194;2022-08-19T10:34:38;23.50;99.90
39875;DHT22;25547;52.530;13.194;2022-08-19T10:37:05;23.80;99.90
39875;DHT22;25547;52.530;13.194;2022-08-19T10:39:33;23.90;99.90
39875;DHT22;25547;52.530;13.194;2022-08-19T10:42:03;24.00;99.90
39875;DHT22;25547;52.530;13.194;2022-08-19T10:44:29;23.90;99.90
39875;DHT22;25547;52.530;13.194;2022-08-19T10:46:55;24.00;99.90
39875;DHT22;25547;52.530;13.194;2022-08-19T10:49:21;23.90;99.90
39875;DHT22;25547;52.530;13.194;2022-08-19T10:51:49;23.80;99.90
39875;DHT22;25547;52.530;13.194;2022-08-19T10:54:33;23.60;99.90
39875;DHT22;25547;52.530;13.194;2022-08-19T10:57:17;23.50;99.90
39875;DHT22;25547;52.530;13.194;2022-08-19T10:59:49;23.40;99.90
39875;DHT22;25547;52.530;13.194;2022-08-19T11:02:19;23.20;99.90
39875;DHT22;25547;52.530;13.194;2022-08-19T11:04:45;23.10;99.90
39875;DHT22;25547;52.530;13.194;2022-08-19T11:07:18;23.10;99.90
39875;DHT22;25547;52.530;13.194;2022-08-19T11:09:43;23.20;99.90
39875;DHT22;25547;52.530;13.194;2022-08-19T11:12:14;23.20;99.90
39875;DHT22;25547;52.530;13.194;2022-08-19T11:14:40;23.20;99.90
39875;DHT22;25547;52.530;13.194;2022-08-19T11:17:08;23.30;99.90
39875;DHT22;25547;52.530;13.194;2022-08-19T11:19:34;23.30;99.90
39875;DHT22;25547;52.530;13.194;2022-08-19T11:22:00;23.20;99.90
39875;DHT22;25547;52.530;13.194;2022-08-19T11:24:30;23.30;99.90
39875;DHT22;25547;52.530;13.194;2022-08-19T11:27:03;23.30;99.90
39875;DHT22;25547;52.530;13.194;2022-08-19T11:29:30;23.10;99.90
39875;DHT22;25547;52.530;13.194;2022-08-19T11:31:56;23.10;99.90
39875;DHT22;25547;52.530;13.194;2022-08-19T11:34:25;23.00;99.90
39875;DHT22;25547;52.530;13.194;2022-08-19T11:36:53;23.00;99.90
39875;DHT22;25547;52.530;13.194;2022-08-19T11:39:24;23.00;99.90
39875;DHT22;25547;52.530;13.194;2022-08-19T11:41:50;22.90;99.90
39875;DHT22;25547;52.530;13.194;2022-08-19T11:44:18;22.80;99.90
39875;DHT22;25547;52.530;13.194;2022-08-19T11:46:45;22.90;99.90
39875;DHT22;25547;52.530;13.194;2022-08-19T11:49:16;22.90;99.90
39875;DHT22;25547;52.530;13.194;2022-08-19T11:51:45;22.90;99.90
39875;DHT22;25547;52.530;13.194;2022-08-19T11:54:13;22.90;99.90
39875;DHT22;25547;52.530;13.194;2022-08-19T11:56:43;22.90;99.90
39875;DHT22;25547;52.530;13.194;2022-08-19T11:59:11;22.90;99.90
39875;DHT22;25547;52.530;13.194;2022-08-19T12:01:37;22.90;99.90
39875;DHT22;25547;52.530;13.194;2022-08-19T12:04:03;22.90;99.90
39875;DHT22;25547;52.530;13.194;2022-08-19T12:06:39;22.90;99.90
39875;DHT22;25547;52.530;13.194;2022-08-19T12:09:09;22.90;99.90
39875;DHT22;25547;52.530;13.194;2022-08-19T12:11:35;22.90;99.90
39875;DHT22;25547;52.530;13.194;2022-08-19T12:14:02;22.90;99.90
39875;DHT22;25547;52.530;13.194;2022-08-19T12:16:29;23.00;99.90
39875;DHT22;25547;52.530;13.194;2022-08-19T12:18:56;23.00;99.90
39875;DHT22;25547;52.530;13.194;2022-08-19T12:21:25;23.00;99.90
39875;DHT22;25547;52.530;13.194;2022-08-19T12:23:55;22.90;99.90
39875;DHT22;25547;52.530;13.194;2022-08-19T12:26:25;22.90;99.90
39875;DHT22;25547;52.530;13.194;2022-08-19T12:28:54;22.90;99.90
39875;DHT22;25547;52.530;13.194;2022-08-19T12:31:20;22.90;99.90
39875;DHT22;25547;52.530;13.194;2022-08-19T12:33:46;22.90;99.90
39875;DHT22;25547;52.530;13.194;2022-08-19T12:36:15;22.90;99.90
39875;DHT22;25547;52.530;13.194;2022-08-19T12:38:41;23.00;99.90
39875;DHT22;25547;52.530;13.194;2022-08-19T12:41:11;23.00;99.90
39875;DHT22;25547;52.530;13.194;2022-08-19T12:43:38;23.10;99.90
39875;DHT22;25547;52.530;13.194;2022-08-19T12:46:05;23.10;99.90
39875;DHT22;25547;52.530;13.194;2022-08-19T12:48:32;23.10;99.90
39875;DHT22;25547;52.530;13.194;2022-08-19T12:50:57;23.00;99.90
39875;DHT22;25547;52.530;13.194;2022-08-19T12:53:23;23.10;99.90
39875;DHT22;25547;52.530;13.194;2022-08-19T12:55:55;23.00;99.90
39875;DHT22;25547;52.530;13.194;2022-08-19T12:58:23;23.00;99.90
39875;DHT22;25547;52.530;13.194;2022-08-19T13:00:54;22.90;99.90
39875;DHT22;25547;52.530;13.194;2022-08-19T13:03:19;23.00;99.90
39875;DHT22;25547;52.530;13.194;2022-08-19T13:05:47;23.10;99.90
39875;DHT22;25547;52.530;13.194;2022-08-19T13:08:15;23.20;99.90
39875;DHT22;25547;52.530;13.194;2022-08-19T13:10:42;23.30;99.90
39875;DHT22;25547;52.530;13.194;2022-08-19T13:13:08;23.30;99.90
39875;DHT22;25547;52.530;13.194;2022-08-19T13:15:37;23.40;99.90
39875;DHT22;25547;52.530;13.194;2022-08-19T13:18:05;23.50;99.90
39875;DHT22;25547;52.530;13.194;2022-08-19T13:20:35;23.60;99.90
39875;DHT22;25547;52.530;13.194;2022-08-19T13:23:01;23.60;99.90
39875;DHT22;25547;52.530;13.194;2022-08-19T13:25:26;23.60;99.90
39875;DHT22;25547;52.530;13.194;2022-08-19T13:27:52;23.60;99.90
39875;DHT22;25547;52.530;13.194;2022-08-19T13:30:24;23.40;99.90
39875;DHT22;25547;52.530;13.194;2022-08-19T13:33:09;23.40;99.90
39875;DHT22;25547;52.530;13.194;2022-08-19T13:35:42;23.40;99.90
39875;DHT22;25547;52.530;13.194;2022-08-19T13:38:11;23.60;99.90
39875;DHT22;25547;52.530;13.194;2022-08-19T13:40:37;23.70;99.90
39875;DHT22;25547;52.530;13.194;2022-08-19T13:43:04;23.70;99.90
39875;DHT22;25547;52.530;13.194;2022-08-19T13:45:31;23.60;99.90
39875;DHT22;25547;52.530;13.194;2022-08-19T13:48:06;23.80;99.90
39875;DHT22;25547;52.530;13.194;2022-08-19T13:50:39;23.80;99.90
39875;DHT22;25547;52.530;13.194;2022-08-19T13:53:07;23.70;99.90
39875;DHT22;25547;52.530;13.194;2022-08-19T13:55:33;23.60;99.90
39875;DHT22;25547;52.530;13.194;2022-08-19T13:58:00;23.60;99.90
39875;DHT22;25547;52.530;13.194;2022-08-19T14:00:30;23.70;99.90
39875;DHT22;25547;52.530;13.194;2022-08-19T14:02:56;23.80;99.90
39875;DHT22;25547;52.530;13.194;2022-08-19T14:05:24;23.80;99.90
39875;DHT22;25547;52.530;13.194;2022-08-19T14:07:52;23.90;99.90
39875;DHT22;25547;52.530;13.194;2022-08-19T14:10:19;24.10;99.90
39875;DHT22;25547;52.530;13.194;2022-08-19T14:12:46;24.20;99.90
39875;DHT22;25547;52.530;13.194;2022-08-19T14:15:16;24.10;99.90
39875;DHT22;25547;52.530;13.194;2022-08-19T14:17:47;24.10;99.90
39875;DHT22;25547;52.530;13.194;2022-08-19T14:20:14;24.00;99.90
39875;DHT22;25547;52.530;13.194;2022-08-19T14:22:41;23.90;99.90
39875;DHT22;25547;52.530;13.194;2022-08-19T14:25:10;23.80;99.90
39875;DHT22;25547;52.530;13.194;2022-08-19T14:27:40;23.60;99.90
39875;DHT22;25547;52.530;13.194;2022-08-19T14:30:08;23.60;99.90
39875;DHT22;25547;52.530;13.194;2022-08-19T14:32:36;23.60;99.90
39875;DHT22;25547;52.530;13.194;2022-08-19T14:35:03;23.50;99.90
39875;DHT22;25547;52.530;13.194;2022-08-19T14:37:29;23.50;99.90
39875;DHT22;25547;52.530;13.194;2022-08-19T14:39:57;23.40;99.90
39875;DHT22;25547;52.530;13.194;2022-08-19T14:42:25;23.40;99.90
39875;DHT22;25547;52.530;13.194;2022-08-19T14:44:50;23.40;99.90
39875;DHT22;25547;52.530;13.194;2022-08-19T14:47:16;23.30;99.90
39875;DHT22;25547;52.530;13.194;2022-08-19T14:49:42;23.30;99.90
39875;DHT22;25547;52.530;13.194;2022-08-19T14:52:07;23.20;99.90
39875;DHT22;25547;52.530;13.194;2022-08-19T14:54:38;23.20;99.90
39875;DHT22;25547;52.530;13.194;2022-08-19T14:57:12;23.10;99.90
39875;DHT22;25547;52.530;13.194;2022-08-19T14:59:39;23.10;99.90
39875;DHT22;25547;52.530;13.194;2022-08-19T15:02:05;23.10;99.90
39875;DHT22;25547;52.530;13.194;2022-08-19T15:04:33;23.00;99.90
39875;DHT22;25547;52.530;13.194;2022-08-19T15:06:58;23.00;99.90
39875;DHT22;25547;52.530;13.194;2022-08-19T15:09:32;23.00;99.90
39875;DHT22;25547;52.530;13.194;2022-08-19T15:11:58;22.90;99.90
39875;DHT22;25547;52.530;13.194;2022-08-19T15:14:26;22.90;99.90
39875;DHT22;25547;52.530;13.194;2022-08-19T15:16:54;22.90;99.90
39875;DHT22;25547;52.530;13.194;2022-08-19T15:19:20;22.90;99.90
39875;DHT22;25547;52.530;13.194;2022-08-19T15:21:49;22.80;99.90
39875;DHT22;25547;52.530;13.194;2022-08-19T15:24:14;22.80;99.90
39875;DHT22;25547;52.530;13.194;2022-08-19T15:26:40;22.70;99.90
39875;DHT22;25547;52.530;13.194;2022-08-19T15:29:05;22.70;99.90
39875;DHT22;25547;52.530;13.194;2022-08-19T15:31:31;22.70;99.90
39875;DHT22;25547;52.530;13.194;2022-08-19T15:34:03;22.60;99.90
39875;DHT22;25547;52.530;13.194;2022-08-19T15:36:31;22.60;99.90
39875;DHT22;25547;52.530;13.194;2022-08-19T15:38:57;22.60;99.90